createdAt,value
2018-04-26T00:00:04.824Z,3.47
2018-04-26T00:00:17.284Z,3.47
2018-04-26T00:00:29.725Z,3.47
2018-04-26T00:00:42.137Z,3.47
2018-04-26T00:00:54.567Z,3.47
2018-04-26T00:01:06.977Z,3.47
2018-04-26T00:01:19.395Z,3.47
2018-04-26T00:01:31.833Z,3.47
2018-04-26T00:01:44.359Z,3.47
2018-04-26T00:01:56.814Z,3.47
2018-04-26T00:02:09.246Z,3.47
2018-04-26T00:02:21.655Z,3.47
2018-04-26T00:02:34.085Z,4.2
2018-04-26T00:02:46.501Z,4.2
2018-04-26T00:02:58.924Z,4.2
2018-04-26T00:03:11.349Z,4.2
2018-04-26T00:03:23.759Z,4.2
2018-04-26T00:03:36.185Z,4.2
2018-04-26T00:03:48.619Z,4.2
2018-04-26T00:04:01.019Z,4.2
2018-04-26T00:04:13.428Z,4.2
2018-04-26T00:04:25.871Z,4.2
2018-04-26T00:04:38.285Z,4.2
2018-04-26T00:04:50.708Z,4.2
2018-04-26T00:05:03.125Z,4.2
2018-04-26T00:05:15.546Z,4.2
2018-04-26T00:05:27.953Z,4.2
2018-04-26T00:05:40.362Z,4.2
2018-04-26T00:05:52.782Z,4.2
2018-04-26T00:06:05.195Z,4.2
2018-04-26T00:06:17.631Z,4.2
2018-04-26T00:06:30.043Z,4.2
2018-04-26T00:06:42.515Z,4.2
2018-04-26T00:06:54.958Z,4.2
2018-04-26T00:07:07.387Z,4.2
2018-04-26T00:07:19.796Z,4.2
2018-04-26T00:07:32.203Z,4.2
2018-04-26T00:07:44.623Z,4.2
2018-04-26T00:07:57.077Z,4.2
2018-04-26T00:08:09.494Z,4.2
2018-04-26T00:08:21.926Z,4.2
2018-04-26T00:08:34.341Z,4.2
2018-04-26T00:08:46.743Z,4.2
2018-04-26T00:08:59.146Z,4.2
2018-04-26T00:09:11.565Z,4.2
2018-04-26T00:09:23.996Z,4.2
2018-04-26T00:09:36.417Z,4.2
2018-04-26T00:09:48.833Z,4.2
2018-04-26T00:10:01.253Z,4.2
2018-04-26T00:10:13.694Z,4.2
2018-04-26T00:10:26.110Z,4.2
2018-04-26T00:10:38.835Z,4.2
2018-04-26T00:10:51.239Z,4.2
2018-04-26T00:11:03.721Z,4.2
2018-04-26T00:11:16.209Z,4.2
2018-04-26T00:11:28.654Z,4.2
2018-04-26T00:11:41.066Z,4.2
2018-04-26T00:11:53.488Z,4.2
2018-04-26T00:12:05.908Z,4.2
2018-04-26T00:12:18.316Z,4.2
2018-04-26T00:12:30.752Z,3.33
2018-04-26T00:12:43.182Z,3.33
2018-04-26T00:12:55.595Z,3.33
2018-04-26T00:13:08.190Z,3.33
2018-04-26T00:13:20.606Z,3.33
2018-04-26T00:13:33.025Z,3.33
2018-04-26T00:13:45.551Z,3.33
2018-04-26T00:13:57.978Z,3.33
2018-04-26T00:14:10.404Z,3.33
2018-04-26T00:14:22.897Z,3.33
2018-04-26T00:14:35.312Z,3.33
2018-04-26T00:14:47.736Z,3.33
2018-04-26T00:15:00.148Z,3.33
2018-04-26T00:15:12.576Z,3.33
2018-04-26T00:15:24.991Z,3.33
2018-04-26T00:15:37.403Z,3.33
2018-04-26T00:15:49.816Z,3.33
2018-04-26T00:16:02.258Z,3.33
2018-04-26T00:16:14.672Z,3.33
2018-04-26T00:16:27.077Z,3.33
2018-04-26T00:16:39.492Z,3.33
2018-04-26T00:16:51.931Z,3.33
2018-04-26T00:17:04.340Z,3.33
2018-04-26T00:17:16.757Z,3.33
2018-04-26T00:17:29.172Z,3.33
2018-04-26T00:17:41.595Z,3.33
2018-04-26T00:17:54.008Z,3.33
2018-04-26T00:18:06.426Z,3.33
2018-04-26T00:18:18.839Z,3.33
2018-04-26T00:18:31.698Z,3.33
2018-04-26T00:18:44.136Z,3.33
2018-04-26T00:18:56.544Z,3.33
2018-04-26T00:19:08.953Z,3.33
2018-04-26T00:19:21.390Z,3.33
2018-04-26T00:19:33.936Z,3.33
2018-04-26T00:19:46.359Z,3.33
2018-04-26T00:19:58.770Z,3.33
2018-04-26T00:20:11.178Z,3.33
2018-04-26T00:20:23.609Z,3.33
2018-04-26T00:20:36.033Z,3.33
2018-04-26T00:20:48.440Z,3.33
2018-04-26T00:21:00.841Z,3.33
2018-04-26T00:21:13.257Z,3.33
2018-04-26T00:21:25.663Z,3.33
2018-04-26T00:21:38.076Z,3.33
2018-04-26T00:21:50.504Z,3.33
2018-04-26T00:22:02.920Z,3.33
2018-04-26T00:22:15.324Z,3.33
2018-04-26T00:22:27.737Z,4.52
2018-04-26T00:22:40.164Z,4.52
2018-04-26T00:22:52.669Z,4.52
2018-04-26T00:23:05.088Z,4.52
2018-04-26T00:23:17.496Z,4.52
2018-04-26T00:23:29.909Z,4.52
2018-04-26T00:23:42.355Z,4.52
2018-04-26T00:23:54.767Z,4.52
2018-04-26T00:24:07.175Z,4.52
2018-04-26T00:24:19.582Z,4.52
2018-04-26T00:24:31.985Z,4.52
2018-04-26T00:24:44.389Z,4.52
2018-04-26T00:24:56.804Z,4.52
2018-04-26T00:25:09.242Z,4.52
2018-04-26T00:25:21.665Z,4.52
2018-04-26T00:25:34.060Z,4.52
2018-04-26T00:25:46.480Z,4.52
2018-04-26T00:25:58.887Z,4.52
2018-04-26T00:26:11.382Z,4.52
2018-04-26T00:26:23.789Z,4.52
2018-04-26T00:26:36.205Z,4.52
2018-04-26T00:26:48.610Z,4.52
2018-04-26T00:27:01.028Z,4.52
2018-04-26T00:27:13.437Z,4.52
2018-04-26T00:27:25.903Z,4.52
2018-04-26T00:27:38.321Z,4.52
2018-04-26T00:27:50.895Z,4.52
2018-04-26T00:28:03.314Z,4.52
2018-04-26T00:28:15.730Z,4.52
2018-04-26T00:28:28.145Z,4.52
2018-04-26T00:28:40.565Z,4.52
2018-04-26T00:28:52.998Z,4.52
2018-04-26T00:29:05.428Z,4.52
2018-04-26T00:29:17.846Z,4.52
2018-04-26T00:29:30.257Z,4.52
2018-04-26T00:29:42.663Z,4.52
2018-04-26T00:29:55.073Z,4.52
2018-04-26T00:30:07.480Z,4.52
2018-04-26T00:30:19.904Z,4.52
2018-04-26T00:30:32.317Z,4.52
2018-04-26T00:30:44.743Z,4.52
2018-04-26T00:30:57.167Z,4.52
2018-04-26T00:31:09.599Z,4.52
2018-04-26T00:31:22.024Z,4.52
2018-04-26T00:31:34.437Z,4.52
2018-04-26T00:31:46.866Z,4.52
2018-04-26T00:31:59.282Z,4.52
2018-04-26T00:32:11.718Z,4.52
2018-04-26T00:32:24.142Z,4.52
2018-04-26T00:32:36.554Z,3.39
2018-04-26T00:32:49.210Z,3.39
2018-04-26T00:33:01.622Z,3.39
2018-04-26T00:33:14.056Z,3.39
2018-04-26T00:33:26.473Z,3.39
2018-04-26T00:33:38.887Z,3.39
2018-04-26T00:33:51.320Z,3.39
2018-04-26T00:34:03.735Z,3.39
2018-04-26T00:34:16.154Z,3.39
2018-04-26T00:34:28.667Z,3.39
2018-04-26T00:34:41.071Z,3.39
2018-04-26T00:34:53.486Z,3.39
2018-04-26T00:35:06.005Z,3.39
2018-04-26T00:35:18.433Z,3.39
2018-04-26T00:35:30.865Z,3.39
2018-04-26T00:35:43.277Z,3.39
2018-04-26T00:35:55.693Z,3.39
2018-04-26T00:36:08.095Z,3.39
2018-04-26T00:36:20.531Z,3.39
2018-04-26T00:36:32.936Z,3.39
2018-04-26T00:36:45.362Z,3.39
2018-04-26T00:36:57.792Z,3.39
2018-04-26T00:37:10.214Z,3.39
2018-04-26T00:37:22.784Z,3.39
2018-04-26T00:37:35.200Z,3.39
2018-04-26T00:37:47.602Z,3.39
2018-04-26T00:38:00.024Z,3.39
2018-04-26T00:38:12.431Z,3.39
2018-04-26T00:38:24.861Z,3.39
2018-04-26T00:38:37.289Z,3.39
2018-04-26T00:38:49.715Z,3.39
2018-04-26T00:39:02.124Z,3.39
2018-04-26T00:39:14.551Z,3.39
2018-04-26T00:39:27.027Z,3.39
2018-04-26T00:39:39.445Z,3.39
2018-04-26T00:39:51.856Z,3.39
2018-04-26T00:40:04.273Z,3.39
2018-04-26T00:40:16.676Z,3.39
2018-04-26T00:40:29.079Z,3.39
2018-04-26T00:40:41.473Z,3.39
2018-04-26T00:40:53.881Z,3.39
2018-04-26T00:41:06.303Z,3.39
2018-04-26T00:41:18.725Z,3.39
2018-04-26T00:41:31.214Z,3.39
2018-04-26T00:41:43.634Z,3.39
2018-04-26T00:41:56.065Z,3.39
2018-04-26T00:42:08.469Z,3.39
2018-04-26T00:42:21.098Z,3.39
2018-04-26T00:42:33.512Z,5.62
2018-04-26T00:42:45.916Z,5.62
2018-04-26T00:42:58.418Z,5.62
2018-04-26T00:43:10.831Z,5.62
2018-04-26T00:43:23.257Z,5.62
2018-04-26T00:43:35.680Z,5.62
2018-04-26T00:43:48.091Z,5.62
2018-04-26T00:44:00.515Z,5.62
2018-04-26T00:44:12.931Z,5.62
2018-04-26T00:44:25.399Z,5.62
2018-04-26T00:44:37.872Z,5.62
2018-04-26T00:44:50.300Z,5.62
2018-04-26T00:45:02.727Z,5.62
2018-04-26T00:45:15.330Z,5.62
2018-04-26T00:45:27.964Z,5.62
2018-04-26T00:45:40.386Z,5.62
2018-04-26T00:45:52.917Z,5.62
2018-04-26T00:46:05.361Z,5.62
2018-04-26T00:46:17.767Z,5.62
2018-04-26T00:46:30.199Z,5.62
2018-04-26T00:46:42.592Z,5.62
2018-04-26T00:46:55.018Z,5.62
2018-04-26T00:47:07.429Z,5.62
2018-04-26T00:47:19.829Z,5.62
2018-04-26T00:47:32.300Z,5.62
2018-04-26T00:47:44.713Z,5.62
2018-04-26T00:47:57.233Z,5.62
2018-04-26T00:48:10.469Z,5.62
2018-04-26T00:48:22.873Z,5.62
2018-04-26T00:48:35.277Z,5.62
2018-04-26T00:48:47.691Z,5.62
2018-04-26T00:49:00.100Z,5.62
2018-04-26T00:49:12.516Z,5.62
2018-04-26T00:49:24.919Z,5.62
2018-04-26T00:49:37.335Z,5.62
2018-04-26T00:49:49.757Z,5.62
2018-04-26T00:50:02.166Z,5.62
2018-04-26T00:50:14.827Z,5.62
2018-04-26T00:50:27.232Z,5.62
2018-04-26T00:50:39.640Z,5.62
2018-04-26T00:50:52.057Z,5.62
2018-04-26T00:51:04.464Z,5.62
2018-04-26T00:51:16.886Z,5.62
2018-04-26T00:51:29.285Z,5.62
2018-04-26T00:51:41.711Z,5.62
2018-04-26T00:51:54.133Z,5.62
2018-04-26T00:52:06.539Z,5.62
2018-04-26T00:52:18.947Z,5.62
2018-04-26T00:52:31.345Z,4
2018-04-26T00:52:43.759Z,4
2018-04-26T00:52:56.172Z,4
2018-04-26T00:53:08.576Z,4
2018-04-26T00:53:20.978Z,4
2018-04-26T00:53:33.396Z,4
2018-04-26T00:53:45.812Z,4
2018-04-26T00:53:58.211Z,4
2018-04-26T00:54:10.625Z,4
2018-04-26T00:54:23.051Z,4
2018-04-26T00:54:35.469Z,4
2018-04-26T00:54:47.871Z,4
2018-04-26T00:55:00.291Z,4
2018-04-26T00:55:12.847Z,4
2018-04-26T00:55:25.260Z,4
2018-04-26T00:55:37.681Z,4
2018-04-26T00:55:50.083Z,4
2018-04-26T00:56:02.501Z,4
2018-04-26T00:56:14.943Z,4
2018-04-26T00:56:27.352Z,4
2018-04-26T00:56:39.759Z,4
2018-04-26T00:56:52.170Z,4
2018-04-26T00:57:04.632Z,4
2018-04-26T00:57:17.039Z,4
2018-04-26T00:57:29.450Z,4
2018-04-26T00:57:41.873Z,4
2018-04-26T00:57:54.312Z,4
2018-04-26T00:58:06.726Z,4
2018-04-26T00:58:19.135Z,4
2018-04-26T00:58:31.538Z,4
2018-04-26T00:58:43.943Z,4
2018-04-26T00:58:56.373Z,4
2018-04-26T00:59:08.791Z,4
2018-04-26T00:59:21.202Z,4
2018-04-26T00:59:33.611Z,4
2018-04-26T00:59:46.076Z,4
2018-04-26T00:59:58.480Z,4
2018-04-26T01:00:10.980Z,4
2018-04-26T01:00:23.437Z,4
2018-04-26T01:00:35.891Z,4
2018-04-26T01:00:48.326Z,4
2018-04-26T01:01:00.759Z,4
2018-04-26T01:01:13.199Z,4
2018-04-26T01:01:25.695Z,4
2018-04-26T01:01:38.100Z,4
2018-04-26T01:01:50.613Z,4
2018-04-26T01:02:03.045Z,4
2018-04-26T01:02:15.494Z,4
2018-04-26T01:02:27.908Z,4
2018-04-26T01:02:40.327Z,4.28
2018-04-26T01:02:52.744Z,4.28
2018-04-26T01:03:05.174Z,4.28
2018-04-26T01:03:17.645Z,4.28
2018-04-26T01:03:30.065Z,4.28
2018-04-26T01:03:42.497Z,4.28
2018-04-26T01:03:54.911Z,4.28
2018-04-26T01:04:07.326Z,4.28
2018-04-26T01:04:19.742Z,4.28
2018-04-26T01:04:32.153Z,4.28
2018-04-26T01:04:44.568Z,4.28
2018-04-26T01:04:56.983Z,4.28
2018-04-26T01:05:09.577Z,4.28
2018-04-26T01:05:22.062Z,4.28
2018-04-26T01:05:34.497Z,4.28
2018-04-26T01:05:46.959Z,4.28
2018-04-26T01:05:59.368Z,4.28
2018-04-26T01:06:11.845Z,4.28
2018-04-26T01:06:24.265Z,4.28
2018-04-26T01:06:36.668Z,4.28
2018-04-26T01:06:49.070Z,4.28
2018-04-26T01:07:01.509Z,4.28
2018-04-26T01:07:13.912Z,4.28
2018-04-26T01:07:26.399Z,4.28
2018-04-26T01:07:38.818Z,4.28
2018-04-26T01:07:51.283Z,4.28
2018-04-26T01:08:03.687Z,4.28
2018-04-26T01:08:16.108Z,4.28
2018-04-26T01:08:28.523Z,4.28
2018-04-26T01:08:40.943Z,4.28
2018-04-26T01:08:53.358Z,4.28
2018-04-26T01:09:05.770Z,4.28
2018-04-26T01:09:18.175Z,4.28
2018-04-26T01:09:30.600Z,4.28
2018-04-26T01:09:43.127Z,4.28
2018-04-26T01:09:55.550Z,4.28
2018-04-26T01:10:07.965Z,4.28
2018-04-26T01:10:20.396Z,4.28
2018-04-26T01:10:32.804Z,4.28
2018-04-26T01:10:45.344Z,4.28
2018-04-26T01:10:57.766Z,4.28
2018-04-26T01:11:10.203Z,4.28
2018-04-26T01:11:22.623Z,4.28
2018-04-26T01:11:35.032Z,4.28
2018-04-26T01:11:47.467Z,4.28
2018-04-26T01:11:59.910Z,4.28
2018-04-26T01:12:12.340Z,4.28
2018-04-26T01:12:24.770Z,4.28
2018-04-26T01:12:37.174Z,4.58
2018-04-26T01:12:49.599Z,4.58
2018-04-26T01:13:02.026Z,4.58
2018-04-26T01:13:14.441Z,4.58
2018-04-26T01:13:26.868Z,4.58
2018-04-26T01:13:39.399Z,4.58
2018-04-26T01:13:51.814Z,4.58
2018-04-26T01:14:04.240Z,4.58
2018-04-26T01:14:16.674Z,4.58
2018-04-26T01:14:29.177Z,4.58
2018-04-26T01:14:41.586Z,4.58
2018-04-26T01:14:54.078Z,4.58
2018-04-26T01:15:06.493Z,4.58
2018-04-26T01:15:18.912Z,4.58
2018-04-26T01:15:31.312Z,4.58
2018-04-26T01:15:43.717Z,4.58
2018-04-26T01:15:56.208Z,4.58
2018-04-26T01:16:08.639Z,4.58
2018-04-26T01:16:21.036Z,4.58
2018-04-26T01:16:33.468Z,4.58
2018-04-26T01:16:45.873Z,4.58
2018-04-26T01:16:58.288Z,4.58
2018-04-26T01:17:10.712Z,4.58
2018-04-26T01:17:23.128Z,4.58
2018-04-26T01:17:35.547Z,4.58
2018-04-26T01:17:47.948Z,4.58
2018-04-26T01:18:00.360Z,4.58
2018-04-26T01:18:12.761Z,4.58
2018-04-26T01:18:25.314Z,4.58
2018-04-26T01:18:38.065Z,4.58
2018-04-26T01:18:50.461Z,4.58
2018-04-26T01:19:02.864Z,4.58
2018-04-26T01:19:15.372Z,4.58
2018-04-26T01:19:27.891Z,4.58
2018-04-26T01:19:40.329Z,4.58
2018-04-26T01:19:52.739Z,4.58
2018-04-26T01:20:05.703Z,4.58
2018-04-26T01:20:18.596Z,4.58
2018-04-26T01:20:31.091Z,4.58
2018-04-26T01:20:43.513Z,4.58
2018-04-26T01:20:55.936Z,4.58
2018-04-26T01:21:08.354Z,4.58
2018-04-26T01:21:20.764Z,4.58
2018-04-26T01:21:33.164Z,4.58
2018-04-26T01:21:45.577Z,4.58
2018-04-26T01:21:57.994Z,4.58
2018-04-26T01:22:10.409Z,4.58
2018-04-26T01:22:22.823Z,4.58
2018-04-26T01:22:35.235Z,3.49
2018-04-26T01:22:47.654Z,3.49
2018-04-26T01:23:00.127Z,3.49
2018-04-26T01:23:12.524Z,3.49
2018-04-26T01:23:24.938Z,3.49
2018-04-26T01:23:37.363Z,3.49
2018-04-26T01:23:49.766Z,3.49
2018-04-26T01:24:02.172Z,3.49
2018-04-26T01:24:14.604Z,3.49
2018-04-26T01:24:27.069Z,3.49
2018-04-26T01:24:39.485Z,3.49
2018-04-26T01:24:51.911Z,3.49
2018-04-26T01:25:04.319Z,3.49
2018-04-26T01:25:16.739Z,3.49
2018-04-26T01:25:29.134Z,3.49
2018-04-26T01:25:41.549Z,3.49
2018-04-26T01:25:53.944Z,3.49
2018-04-26T01:26:06.352Z,3.49
2018-04-26T01:26:18.760Z,3.49
2018-04-26T01:26:31.162Z,3.49
2018-04-26T01:26:43.578Z,3.49
2018-04-26T01:26:55.992Z,3.49
2018-04-26T01:27:08.451Z,3.49
2018-04-26T01:27:20.869Z,3.49
2018-04-26T01:27:33.281Z,3.49
2018-04-26T01:27:45.707Z,3.49
2018-04-26T01:27:58.197Z,3.49
2018-04-26T01:28:10.609Z,3.49
2018-04-26T01:28:23.042Z,3.49
2018-04-26T01:28:35.462Z,3.49
2018-04-26T01:28:47.899Z,3.49
2018-04-26T01:29:00.299Z,3.49
2018-04-26T01:29:12.716Z,3.49
2018-04-26T01:29:25.127Z,3.49
2018-04-26T01:29:37.556Z,3.49
2018-04-26T01:29:49.971Z,3.49
2018-04-26T01:30:02.373Z,3.49
2018-04-26T01:30:14.795Z,3.49
2018-04-26T01:30:27.206Z,3.49
2018-04-26T01:30:39.603Z,3.49
2018-04-26T01:30:52.010Z,3.49
2018-04-26T01:31:04.432Z,3.49
2018-04-26T01:31:16.842Z,3.49
2018-04-26T01:31:29.249Z,3.49
2018-04-26T01:31:41.658Z,3.49
2018-04-26T01:31:54.095Z,3.49
2018-04-26T01:32:06.507Z,3.49
2018-04-26T01:32:18.922Z,3.49
2018-04-26T01:32:31.334Z,4.8
2018-04-26T01:32:43.736Z,4.8
2018-04-26T01:32:56.376Z,4.8
2018-04-26T01:33:08.869Z,4.8
2018-04-26T01:33:21.278Z,4.8
2018-04-26T01:33:33.717Z,4.8
2018-04-26T01:33:46.207Z,4.8
2018-04-26T01:33:58.611Z,4.8
2018-04-26T01:34:11.039Z,4.8
2018-04-26T01:34:23.455Z,4.8
2018-04-26T01:34:35.865Z,4.8
2018-04-26T01:34:48.283Z,4.8
2018-04-26T01:35:00.701Z,4.8
2018-04-26T01:35:13.164Z,4.8
2018-04-26T01:35:25.589Z,4.8
2018-04-26T01:35:38.009Z,4.8
2018-04-26T01:35:50.475Z,4.8
2018-04-26T01:36:02.906Z,4.8
2018-04-26T01:36:15.317Z,4.8
2018-04-26T01:36:27.721Z,4.8
2018-04-26T01:36:40.125Z,4.8
2018-04-26T01:36:52.535Z,4.8
2018-04-26T01:37:04.933Z,4.8
2018-04-26T01:37:17.332Z,4.8
2018-04-26T01:37:29.745Z,4.8
2018-04-26T01:37:42.142Z,4.8
2018-04-26T01:37:54.587Z,4.8
2018-04-26T01:38:07.164Z,4.8
2018-04-26T01:38:19.558Z,4.8
2018-04-26T01:38:31.987Z,4.8
2018-04-26T01:38:44.417Z,4.8
2018-04-26T01:38:56.821Z,4.8
2018-04-26T01:39:09.243Z,4.8
2018-04-26T01:39:21.675Z,4.8
2018-04-26T01:39:34.099Z,4.8
2018-04-26T01:39:46.501Z,4.8
2018-04-26T01:39:58.908Z,4.8
2018-04-26T01:40:11.340Z,4.8
2018-04-26T01:40:23.744Z,4.8
2018-04-26T01:40:36.150Z,4.8
2018-04-26T01:40:48.570Z,4.8
2018-04-26T01:41:00.970Z,4.8
2018-04-26T01:41:13.391Z,4.8
2018-04-26T01:41:25.818Z,4.8
2018-04-26T01:41:38.306Z,4.8
2018-04-26T01:41:50.819Z,4.8
2018-04-26T01:42:03.228Z,4.8
2018-04-26T01:42:15.654Z,4.8
2018-04-26T01:42:28.069Z,4.8
2018-04-26T01:42:40.474Z,5.99
2018-04-26T01:42:53.346Z,5.99
2018-04-26T01:43:05.834Z,5.99
2018-04-26T01:43:18.237Z,5.99
2018-04-26T01:43:30.642Z,5.99
2018-04-26T01:43:43.065Z,5.99
2018-04-26T01:43:55.558Z,5.99
2018-04-26T01:44:07.980Z,5.99
2018-04-26T01:44:20.405Z,5.99
2018-04-26T01:44:32.811Z,5.99
2018-04-26T01:44:45.218Z,5.99
2018-04-26T01:44:57.627Z,5.99
2018-04-26T01:45:10.052Z,5.99
2018-04-26T01:45:22.480Z,5.99
2018-04-26T01:45:34.918Z,5.99
2018-04-26T01:45:47.408Z,5.99
2018-04-26T01:45:59.811Z,5.99
2018-04-26T01:46:12.265Z,5.99
2018-04-26T01:46:24.745Z,5.99
2018-04-26T01:46:37.156Z,5.99
2018-04-26T01:46:49.571Z,5.99
2018-04-26T01:47:01.987Z,5.99
2018-04-26T01:47:14.400Z,5.99
2018-04-26T01:47:26.873Z,5.99
2018-04-26T01:47:39.291Z,5.99
2018-04-26T01:47:51.812Z,5.99
2018-04-26T01:48:04.305Z,5.99
2018-04-26T01:48:16.897Z,5.99
2018-04-26T01:48:29.382Z,5.99
2018-04-26T01:48:41.792Z,5.99
2018-04-26T01:48:54.197Z,5.99
2018-04-26T01:49:06.629Z,5.99
2018-04-26T01:49:19.049Z,5.99
2018-04-26T01:49:31.457Z,5.99
2018-04-26T01:49:43.878Z,5.99
2018-04-26T01:49:56.295Z,5.99
2018-04-26T01:50:08.805Z,5.99
2018-04-26T01:50:21.255Z,5.99
2018-04-26T01:50:33.664Z,5.99
2018-04-26T01:50:46.076Z,5.99
2018-04-26T01:50:58.513Z,5.99
2018-04-26T01:51:10.924Z,5.99
2018-04-26T01:51:23.374Z,5.99
2018-04-26T01:51:35.778Z,5.99
2018-04-26T01:51:48.184Z,5.99
2018-04-26T01:52:00.608Z,5.99
2018-04-26T01:52:13.042Z,5.99
2018-04-26T01:52:25.460Z,5.99
2018-04-26T01:52:37.883Z,6.82
2018-04-26T01:52:50.301Z,6.82
2018-04-26T01:53:02.699Z,6.82
2018-04-26T01:53:15.433Z,6.82
2018-04-26T01:53:27.915Z,6.82
2018-04-26T01:53:40.322Z,6.82
2018-04-26T01:53:52.734Z,6.82
2018-04-26T01:54:05.166Z,6.82
2018-04-26T01:54:17.580Z,6.82
2018-04-26T01:54:30.026Z,6.82
2018-04-26T01:54:42.457Z,6.82
2018-04-26T01:54:54.867Z,6.82
2018-04-26T01:55:07.295Z,6.82
2018-04-26T01:55:19.731Z,6.82
2018-04-26T01:55:32.152Z,6.82
2018-04-26T01:55:44.559Z,6.82
2018-04-26T01:55:56.975Z,6.82
2018-04-26T01:56:09.402Z,6.82
2018-04-26T01:56:21.810Z,6.82
2018-04-26T01:56:34.219Z,6.82
2018-04-26T01:56:46.630Z,6.82
2018-04-26T01:56:59.061Z,6.82
2018-04-26T01:57:11.569Z,6.82
2018-04-26T01:57:23.985Z,6.82
2018-04-26T01:57:36.407Z,6.82
2018-04-26T01:57:48.828Z,6.82
2018-04-26T01:58:01.226Z,6.82
2018-04-26T01:58:13.669Z,6.82
2018-04-26T01:58:26.089Z,6.82
2018-04-26T01:58:38.504Z,6.82
2018-04-26T01:58:50.944Z,6.82
2018-04-26T01:59:03.407Z,6.82
2018-04-26T01:59:15.835Z,6.82
2018-04-26T01:59:28.257Z,6.82
2018-04-26T01:59:40.664Z,6.82
2018-04-26T01:59:53.096Z,6.82
2018-04-26T02:00:05.516Z,6.82
2018-04-26T02:00:18.057Z,6.82
2018-04-26T02:00:30.524Z,6.82
2018-04-26T02:00:42.984Z,6.82
2018-04-26T02:00:55.420Z,6.82
2018-04-26T02:01:07.842Z,6.82
2018-04-26T02:01:20.259Z,6.82
2018-04-26T02:01:32.677Z,6.82
2018-04-26T02:01:45.090Z,6.82
2018-04-26T02:01:57.517Z,6.82
2018-04-26T02:02:09.941Z,6.82
2018-04-26T02:02:22.351Z,6.82
2018-04-26T02:02:34.764Z,5.42
2018-04-26T02:02:47.268Z,5.42
2018-04-26T02:02:59.785Z,5.42
2018-04-26T02:03:12.288Z,5.42
2018-04-26T02:03:24.707Z,5.42
2018-04-26T02:03:37.136Z,5.42
2018-04-26T02:03:49.551Z,5.42
2018-04-26T02:04:01.979Z,5.42
2018-04-26T02:04:14.399Z,5.42
2018-04-26T02:04:26.830Z,5.42
2018-04-26T02:04:39.253Z,5.42
2018-04-26T02:04:51.676Z,5.42
2018-04-26T02:05:04.104Z,5.42
2018-04-26T02:05:16.508Z,5.42
2018-04-26T02:05:28.926Z,5.42
2018-04-26T02:05:41.347Z,5.42
2018-04-26T02:05:53.755Z,5.42
2018-04-26T02:06:06.166Z,5.42
2018-04-26T02:06:18.578Z,5.42
2018-04-26T02:06:30.984Z,5.42
2018-04-26T02:06:43.413Z,5.42
2018-04-26T02:06:55.832Z,5.42
2018-04-26T02:07:08.265Z,5.42
2018-04-26T02:07:20.665Z,5.42
2018-04-26T02:07:33.167Z,5.42
2018-04-26T02:07:45.580Z,5.42
2018-04-26T02:07:57.987Z,5.42
2018-04-26T02:08:10.434Z,5.42
2018-04-26T02:08:22.860Z,5.42
2018-04-26T02:08:35.291Z,5.42
2018-04-26T02:08:47.701Z,5.42
2018-04-26T02:09:00.117Z,5.42
2018-04-26T02:09:12.545Z,5.42
2018-04-26T02:09:24.963Z,5.42
2018-04-26T02:09:37.399Z,5.42
2018-04-26T02:09:49.877Z,5.42
2018-04-26T02:10:02.314Z,5.42
2018-04-26T02:10:14.736Z,5.42
2018-04-26T02:10:27.143Z,5.42
2018-04-26T02:10:39.553Z,5.42
2018-04-26T02:10:51.987Z,5.42
2018-04-26T02:11:04.404Z,5.42
2018-04-26T02:11:16.806Z,5.42
2018-04-26T02:11:29.230Z,5.42
2018-04-26T02:11:41.641Z,5.42
2018-04-26T02:11:54.058Z,5.42
2018-04-26T02:12:06.475Z,5.42
2018-04-26T02:12:18.913Z,5.42
2018-04-26T02:12:31.326Z,5.42
2018-04-26T02:12:43.733Z,6.03
2018-04-26T02:12:56.149Z,6.03
2018-04-26T02:13:08.581Z,6.03
2018-04-26T02:13:21.088Z,6.03
2018-04-26T02:13:33.502Z,6.03
2018-04-26T02:13:46.103Z,6.03
2018-04-26T02:13:58.516Z,6.03
2018-04-26T02:14:10.928Z,6.03
2018-04-26T02:14:23.351Z,6.03
2018-04-26T02:14:35.807Z,6.03
2018-04-26T02:14:48.224Z,6.03
2018-04-26T02:15:00.658Z,6.03
2018-04-26T02:15:13.085Z,6.03
2018-04-26T02:15:25.502Z,6.03
2018-04-26T02:15:37.901Z,6.03
2018-04-26T02:15:50.383Z,6.03
2018-04-26T02:16:02.800Z,6.03
2018-04-26T02:16:15.233Z,6.03
2018-04-26T02:16:27.644Z,6.03
2018-04-26T02:16:40.072Z,6.03
2018-04-26T02:16:52.488Z,6.03
2018-04-26T02:17:04.915Z,6.03
2018-04-26T02:17:17.316Z,6.03
2018-04-26T02:17:29.751Z,6.03
2018-04-26T02:17:42.168Z,6.03
2018-04-26T02:17:54.586Z,6.03
2018-04-26T02:18:06.996Z,6.03
2018-04-26T02:18:19.393Z,6.03
2018-04-26T02:18:32.030Z,6.03
2018-04-26T02:18:44.441Z,6.03
2018-04-26T02:18:56.844Z,6.03
2018-04-26T02:19:09.259Z,6.03
2018-04-26T02:19:21.680Z,6.03
2018-04-26T02:19:34.118Z,6.03
2018-04-26T02:19:46.519Z,6.03
2018-04-26T02:19:58.916Z,6.03
2018-04-26T02:20:11.332Z,6.03
2018-04-26T02:20:23.822Z,6.03
2018-04-26T02:20:36.235Z,6.03
2018-04-26T02:20:48.649Z,6.03
2018-04-26T02:21:01.076Z,6.03
2018-04-26T02:21:13.499Z,6.03
2018-04-26T02:21:25.917Z,6.03
2018-04-26T02:21:38.339Z,6.03
2018-04-26T02:21:50.886Z,6.03
2018-04-26T02:22:03.319Z,6.03
2018-04-26T02:22:15.751Z,6.03
2018-04-26T02:22:28.177Z,6.03
2018-04-26T02:22:40.667Z,6.31
2018-04-26T02:22:53.090Z,6.31
2018-04-26T02:23:05.528Z,6.31
2018-04-26T02:23:17.944Z,6.31
2018-04-26T02:23:30.407Z,6.31
2018-04-26T02:23:42.919Z,6.31
2018-04-26T02:23:55.327Z,6.31
2018-04-26T02:24:07.742Z,6.31
2018-04-26T02:24:20.146Z,6.31
2018-04-26T02:24:32.544Z,6.31
2018-04-26T02:24:44.945Z,6.31
2018-04-26T02:24:57.361Z,6.31
2018-04-26T02:25:09.778Z,6.31
2018-04-26T02:25:22.231Z,6.31
2018-04-26T02:25:34.645Z,6.31
2018-04-26T02:25:47.054Z,6.31
2018-04-26T02:25:59.464Z,6.31
2018-04-26T02:26:11.940Z,6.31
2018-04-26T02:26:24.447Z,6.31
2018-04-26T02:26:36.858Z,6.31
2018-04-26T02:26:49.281Z,6.31
2018-04-26T02:27:01.708Z,6.31
2018-04-26T02:27:14.122Z,6.31
2018-04-26T02:27:26.558Z,6.31
2018-04-26T02:27:38.969Z,6.31
2018-04-26T02:27:51.451Z,6.31
2018-04-26T02:28:03.863Z,6.31
2018-04-26T02:28:16.301Z,6.31
2018-04-26T02:28:28.700Z,6.31
2018-04-26T02:28:41.242Z,6.31
2018-04-26T02:28:53.642Z,6.31
2018-04-26T02:29:06.063Z,6.31
2018-04-26T02:29:18.476Z,6.31
2018-04-26T02:29:30.999Z,6.31
2018-04-26T02:29:43.496Z,6.31
2018-04-26T02:29:55.962Z,6.31
2018-04-26T02:30:08.376Z,6.31
2018-04-26T02:30:20.820Z,6.31
2018-04-26T02:30:33.331Z,6.31
2018-04-26T02:30:45.756Z,6.31
2018-04-26T02:30:58.195Z,6.31
2018-04-26T02:31:10.647Z,6.31
2018-04-26T02:31:23.151Z,6.31
2018-04-26T02:31:35.571Z,6.31
2018-04-26T02:31:48.027Z,6.31
2018-04-26T02:32:00.487Z,6.31
2018-04-26T02:32:13.001Z,6.31
2018-04-26T02:32:25.438Z,6.31
2018-04-26T02:32:37.866Z,7.82
2018-04-26T02:32:50.549Z,7.82
2018-04-26T02:33:03.061Z,7.82
2018-04-26T02:33:15.496Z,7.82
2018-04-26T02:33:28.046Z,7.82
2018-04-26T02:33:40.478Z,7.82
2018-04-26T02:33:52.910Z,7.82
2018-04-26T02:34:05.341Z,7.82
2018-04-26T02:34:17.767Z,7.82
2018-04-26T02:34:30.233Z,7.82
2018-04-26T02:34:42.673Z,7.82
2018-04-26T02:34:55.108Z,7.82
2018-04-26T02:35:07.557Z,7.82
2018-04-26T02:35:19.999Z,7.82
2018-04-26T02:35:32.451Z,7.82
2018-04-26T02:35:44.861Z,7.82
2018-04-26T02:35:57.287Z,7.82
2018-04-26T02:36:09.742Z,7.82
2018-04-26T02:36:22.191Z,7.82
2018-04-26T02:36:34.606Z,7.82
2018-04-26T02:36:47.048Z,7.82
2018-04-26T02:36:59.476Z,7.82
2018-04-26T02:37:11.933Z,7.82
2018-04-26T02:37:24.354Z,7.82
2018-04-26T02:37:36.909Z,7.82
2018-04-26T02:37:49.328Z,7.82
2018-04-26T02:38:01.774Z,7.82
2018-04-26T02:38:14.303Z,7.82
2018-04-26T02:38:26.751Z,7.82
2018-04-26T02:38:39.172Z,7.82
2018-04-26T02:38:51.585Z,7.82
2018-04-26T02:39:04.030Z,7.82
2018-04-26T02:39:16.469Z,7.82
2018-04-26T02:39:28.898Z,7.82
2018-04-26T02:39:41.302Z,7.82
2018-04-26T02:39:53.715Z,7.82
2018-04-26T02:40:06.139Z,7.82
2018-04-26T02:40:18.558Z,7.82
2018-04-26T02:40:31.272Z,7.82
2018-04-26T02:40:43.700Z,7.82
2018-04-26T02:40:56.132Z,7.82
2018-04-26T02:41:08.650Z,7.82
2018-04-26T02:41:21.101Z,7.82
2018-04-26T02:41:33.533Z,7.82
2018-04-26T02:41:45.967Z,7.82
2018-04-26T02:41:58.393Z,7.82
2018-04-26T02:42:10.898Z,7.82
2018-04-26T02:42:23.314Z,7.82
2018-04-26T02:42:35.737Z,7.37
2018-04-26T02:42:48.165Z,7.37
2018-04-26T02:43:00.603Z,7.37
2018-04-26T02:43:13.027Z,7.37
2018-04-26T02:43:25.445Z,7.37
2018-04-26T02:43:37.874Z,7.37
2018-04-26T02:43:50.296Z,7.37
2018-04-26T02:44:02.750Z,7.37
2018-04-26T02:44:15.274Z,7.37
2018-04-26T02:44:27.744Z,7.37
2018-04-26T02:44:40.139Z,7.37
2018-04-26T02:44:53.002Z,7.37
2018-04-26T02:45:05.431Z,7.37
2018-04-26T02:45:17.862Z,7.37
2018-04-26T02:45:30.298Z,7.37
2018-04-26T02:45:42.734Z,7.37
2018-04-26T02:45:55.501Z,7.37
2018-04-26T02:46:07.944Z,7.37
2018-04-26T02:46:20.379Z,7.37
2018-04-26T02:46:32.819Z,7.37
2018-04-26T02:46:45.247Z,7.37
2018-04-26T02:46:57.672Z,7.37
2018-04-26T02:47:10.108Z,7.37